createdAt,value
2018-09-07T00:00:33.659Z,0
2018-09-07T00:01:34.098Z,0
2018-09-07T00:02:34.110Z,0
2018-09-07T00:03:33.894Z,0
2018-09-07T00:04:33.931Z,0
2018-09-07T00:05:33.940Z,0
2018-09-07T00:06:33.865Z,0
2018-09-07T00:07:33.366Z,0
2018-09-07T00:08:33.355Z,0
2018-09-07T00:09:33.880Z,0
2018-09-07T00:10:33.599Z,0
2018-09-07T00:11:33.608Z,0
2018-09-07T00:12:33.874Z,0
2018-09-07T00:13:34.113Z,0
2018-09-07T00:14:33.876Z,0
2018-09-07T00:15:33.616Z,0
2018-09-07T00:16:33.881Z,0
2018-09-07T00:17:34.122Z,0
2018-09-07T00:18:34.124Z,0
2018-09-07T00:19:33.884Z,0
2018-09-07T00:20:34.196Z,0
2018-09-07T00:21:34.138Z,0
2018-09-07T00:22:33.355Z,0
2018-09-07T00:23:33.877Z,0
2018-09-07T00:24:33.628Z,0
2018-09-07T00:25:33.647Z,0
2018-09-07T00:26:33.882Z,0
2018-09-07T00:27:34.153Z,0
2018-09-07T00:28:33.621Z,0
2018-09-07T00:29:34.144Z,0
2018-09-07T00:30:34.170Z,0
2018-09-07T00:31:34.131Z,0
2018-09-07T00:32:33.627Z,0
2018-09-07T00:33:33.900Z,0
2018-09-07T00:34:33.891Z,0
2018-09-07T00:35:33.629Z,0
2018-09-07T00:36:33.887Z,0
2018-09-07T00:37:34.146Z,0
2018-09-07T00:38:33.623Z,0
2018-09-07T00:39:34.142Z,0
2018-09-07T00:40:34.144Z,0
2018-09-07T00:41:33.633Z,0
2018-09-07T00:42:34.145Z,0
2018-09-07T00:43:34.138Z,0
2018-09-07T00:44:33.786Z,0
2018-09-07T00:45:33.999Z,0
2018-09-07T00:46:33.450Z,0
2018-09-07T00:47:33.904Z,0
2018-09-07T00:48:33.896Z,0
2018-09-07T00:49:33.903Z,0
2018-09-07T00:50:33.713Z,0
2018-09-07T00:51:33.655Z,0
2018-09-07T00:52:34.151Z,0
2018-09-07T00:53:34.145Z,0
2018-09-07T00:54:33.905Z,0
2018-09-07T00:55:34.200Z,0
2018-09-07T00:56:33.648Z,0
2018-09-07T00:57:33.907Z,0
2018-09-07T00:58:34.159Z,0
2018-09-07T00:59:33.655Z,0
2018-09-07T01:00:34.186Z,0
2018-09-07T01:01:34.154Z,0
2018-09-07T01:02:33.653Z,0
2018-09-07T01:03:33.653Z,0
2018-09-07T01:04:34.177Z,0
2018-09-07T01:05:33.393Z,0
2018-09-07T01:06:33.649Z,0
2018-09-07T01:07:33.403Z,0
2018-09-07T01:08:34.127Z,0
2018-09-07T01:09:33.994Z,0
2018-09-07T01:10:33.802Z,0
2018-09-07T01:11:33.933Z,0
2018-09-07T01:12:33.672Z,0
2018-09-07T01:13:33.908Z,0
2018-09-07T01:14:33.912Z,0
2018-09-07T01:15:33.428Z,0
2018-09-07T01:16:33.662Z,0
2018-09-07T01:17:33.914Z,0
2018-09-07T01:18:34.224Z,0
2018-09-07T01:19:33.930Z,0
2018-09-07T01:20:33.685Z,0
2018-09-07T01:21:33.921Z,0
2018-09-07T01:22:34.170Z,0
2018-09-07T01:23:34.172Z,0
2018-09-07T01:24:34.184Z,0
2018-09-07T01:25:33.716Z,0
2018-09-07T01:26:33.665Z,0
2018-09-07T01:27:34.205Z,0
2018-09-07T01:28:34.180Z,0
2018-09-07T01:29:33.924Z,0
2018-09-07T01:30:33.969Z,0
2018-09-07T01:31:33.673Z,0
2018-09-07T01:32:33.929Z,0
2018-09-07T01:33:33.673Z,0
2018-09-07T01:34:33.990Z,0
2018-09-07T01:35:34.180Z,0
2018-09-07T01:36:34.299Z,0
2018-09-07T01:37:34.240Z,0
2018-09-07T01:38:33.683Z,0
2018-09-07T01:39:33.929Z,0
2018-09-07T01:40:34.320Z,0
2018-09-07T01:41:33.982Z,0
2018-09-07T01:42:33.770Z,0
2018-09-07T01:43:33.668Z,0
2018-09-07T01:44:33.675Z,0
2018-09-07T01:45:33.932Z,0
2018-09-07T01:46:33.938Z,0
2018-09-07T01:47:33.933Z,0
2018-09-07T01:48:34.190Z,0
2018-09-07T01:49:33.949Z,0
2018-09-07T01:50:34.024Z,0
2018-09-07T01:51:33.421Z,0
2018-09-07T01:52:33.683Z,0
2018-09-07T01:53:33.681Z,0
2018-09-07T01:54:34.187Z,0
2018-09-07T01:55:33.999Z,0
2018-09-07T01:56:34.199Z,0
2018-09-07T01:57:33.942Z,0
2018-09-07T01:58:33.945Z,0
2018-09-07T01:59:33.947Z,0
2018-09-07T02:00:33.719Z,0
2018-09-07T02:01:34.251Z,0
2018-09-07T02:02:33.717Z,0
2018-09-07T02:03:33.565Z,0
2018-09-07T02:04:33.689Z,0
2018-09-07T02:05:33.482Z,0
2018-09-07T02:06:33.431Z,0
2018-09-07T02:07:34.229Z,0
2018-09-07T02:08:33.951Z,0
2018-09-07T02:09:33.969Z,0
2018-09-07T02:10:34.285Z,0
2018-09-07T02:11:33.948Z,0
2018-09-07T02:12:33.748Z,0
2018-09-07T02:13:33.945Z,0
2018-09-07T02:14:34.020Z,0
2018-09-07T02:15:33.998Z,0
2018-09-07T02:16:33.952Z,0
2018-09-07T02:17:33.692Z,0
2018-09-07T02:18:33.690Z,0
2018-09-07T02:19:33.432Z,0
2018-09-07T02:20:34.036Z,0
2018-09-07T02:21:33.968Z,0
2018-09-07T02:22:33.955Z,0
2018-09-07T02:23:34.187Z,0
2018-09-07T02:24:33.990Z,0
2018-09-07T02:25:34.278Z,0
2018-09-07T02:26:33.891Z,0
2018-09-07T02:27:33.733Z,0
2018-09-07T02:28:34.287Z,0
2018-09-07T02:29:33.774Z,0
2018-09-07T02:30:34.650Z,0
2018-09-07T02:31:33.966Z,0
2018-09-07T02:32:33.972Z,0
2018-09-07T02:33:33.711Z,0
2018-09-07T02:34:33.719Z,0
2018-09-07T02:35:34.031Z,0
2018-09-07T02:36:34.224Z,0
2018-09-07T02:37:33.711Z,0
2018-09-07T02:38:33.975Z,0
2018-09-07T02:39:33.971Z,0
2018-09-07T02:40:34.282Z,0
2018-09-07T02:41:33.966Z,0
2018-09-07T02:42:33.978Z,0
2018-09-07T02:43:34.224Z,0
2018-09-07T02:44:33.706Z,0
2018-09-07T02:45:34.297Z,0
2018-09-07T02:46:33.978Z,0
2018-09-07T02:47:34.041Z,0
2018-09-07T02:48:34.232Z,0
2018-09-07T02:49:33.710Z,0
2018-09-07T02:50:33.992Z,0
2018-09-07T02:51:33.975Z,0
2018-09-07T02:52:33.977Z,0
2018-09-07T02:53:34.104Z,0
2018-09-07T02:54:34.267Z,0
2018-09-07T02:55:34.378Z,0
2018-09-07T02:56:33.714Z,0
2018-09-07T02:57:33.971Z,0
2018-09-07T02:58:34.234Z,0
2018-09-07T02:59:33.989Z,0
2018-09-07T03:00:34.086Z,0
2018-09-07T03:01:34.251Z,0
2018-09-07T03:02:35.029Z,0
2018-09-07T03:03:33.990Z,0
2018-09-07T03:04:34.231Z,0
2018-09-07T03:05:34.325Z,0
2018-09-07T03:06:33.983Z,0
2018-09-07T03:07:33.985Z,0
2018-09-07T03:08:33.979Z,0
2018-09-07T03:09:33.725Z,0
2018-09-07T03:10:34.276Z,0
2018-09-07T03:11:33.999Z,0
2018-09-07T03:12:33.788Z,0
2018-09-07T03:13:33.722Z,0
2018-09-07T03:14:33.731Z,0
2018-09-07T03:15:33.990Z,0
2018-09-07T03:16:33.935Z,0
2018-09-07T03:17:34.385Z,0
2018-09-07T03:18:34.274Z,0
2018-09-07T03:19:34.262Z,0
2018-09-07T03:20:34.084Z,0
2018-09-07T03:21:34.002Z,0
2018-09-07T03:22:34.362Z,0
2018-09-07T03:23:34.221Z,0
2018-09-07T03:24:33.777Z,0
2018-09-07T03:25:33.795Z,0
2018-09-07T03:26:33.542Z,0
2018-09-07T03:27:34.034Z,0
2018-09-07T03:28:34.307Z,0
2018-09-07T03:29:33.798Z,0
2018-09-07T03:30:33.834Z,0
2018-09-07T03:31:34.347Z,0
2018-09-07T03:32:34.391Z,0
2018-09-07T03:33:33.553Z,0
2018-09-07T03:34:34.087Z,0
2018-09-07T03:35:33.818Z,0
2018-09-07T03:36:33.936Z,0
2018-09-07T03:37:34.476Z,0
2018-09-07T03:38:33.863Z,0
2018-09-07T03:39:33.791Z,0
2018-09-07T03:40:33.842Z,0
2018-09-07T03:41:34.089Z,0
2018-09-07T03:42:34.233Z,0
2018-09-07T03:43:33.502Z,0
2018-09-07T03:44:33.505Z,0
2018-09-07T03:45:34.280Z,0
2018-09-07T03:46:34.321Z,0
2018-09-07T03:47:34.000Z,0
2018-09-07T03:48:34.009Z,0
2018-09-07T03:49:34.006Z,0
2018-09-07T03:50:34.117Z,0
2018-09-07T03:51:34.275Z,0
2018-09-07T03:52:34.009Z,0
2018-09-07T03:53:34.037Z,0
2018-09-07T03:54:34.029Z,0
2018-09-07T03:55:34.066Z,0
2018-09-07T03:56:34.279Z,0
2018-09-07T03:57:34.019Z,0
2018-09-07T03:58:34.020Z,0
2018-09-07T03:59:34.018Z,0
2018-09-07T04:00:34.405Z,0
2018-09-07T04:01:34.198Z,0
2018-09-07T04:02:33.934Z,0
2018-09-07T04:03:33.818Z,0
2018-09-07T04:04:33.761Z,0
2018-09-07T04:05:33.819Z,0
2018-09-07T04:06:34.018Z,0
2018-09-07T04:07:33.787Z,0
2018-09-07T04:08:34.285Z,0
2018-09-07T04:09:34.283Z,0
2018-09-07T04:10:34.140Z,0
2018-09-07T04:11:33.765Z,0
2018-09-07T04:12:34.293Z,0
2018-09-07T04:13:34.053Z,0
2018-09-07T04:14:34.035Z,0
2018-09-07T04:15:34.307Z,0
2018-09-07T04:16:34.286Z,0
2018-09-07T04:17:34.031Z,0
2018-09-07T04:18:34.325Z,4
2018-09-07T04:19:33.789Z,4
2018-09-07T04:20:33.781Z,0
2018-09-07T04:21:33.766Z,4
2018-09-07T04:22:34.026Z,4
2018-09-07T04:23:34.032Z,4
2018-09-07T04:24:34.305Z,4
2018-09-07T04:25:34.298Z,4
2018-09-07T04:26:34.041Z,4
2018-09-07T04:27:33.522Z,8
2018-09-07T04:28:33.785Z,8
2018-09-07T04:29:34.069Z,8
2018-09-07T04:30:34.220Z,12
2018-09-07T04:31:33.797Z,12
2018-09-07T04:32:34.285Z,16
2018-09-07T04:33:33.787Z,20
2018-09-07T04:34:33.774Z,20
2018-09-07T04:35:34.480Z,24
2018-09-07T04:36:34.035Z,24
2018-09-07T04:37:34.038Z,32
2018-09-07T04:38:34.029Z,36
2018-09-07T04:39:34.041Z,40
2018-09-07T04:40:34.203Z,44
2018-09-07T04:41:33.538Z,44
2018-09-07T04:42:33.797Z,52
2018-09-07T04:43:34.057Z,56
2018-09-07T04:44:34.036Z,60
2018-09-07T04:45:34.212Z,68
2018-09-07T04:46:34.044Z,76
2018-09-07T04:47:34.066Z,84
2018-09-07T04:48:34.204Z,96
2018-09-07T04:49:33.812Z,108
2018-09-07T04:50:33.528Z,120
2018-09-07T04:51:34.321Z,132
2018-09-07T04:52:34.314Z,144
2018-09-07T04:53:34.043Z,156
2018-09-07T04:54:34.064Z,156
2018-09-07T04:55:34.134Z,156
2018-09-07T04:56:34.039Z,164
2018-09-07T04:57:33.888Z,172
2018-09-07T04:58:34.304Z,188
2018-09-07T04:59:33.810Z,208
2018-09-07T05:00:34.034Z,228
2018-09-07T05:01:33.770Z,260
2018-09-07T05:02:33.781Z,288
2018-09-07T05:03:33.777Z,320
2018-09-07T05:04:33.783Z,348
2018-09-07T05:05:34.052Z,384
2018-09-07T05:06:33.813Z,424
2018-09-07T05:07:33.783Z,468
2018-09-07T05:08:33.801Z,500
2018-09-07T05:09:34.311Z,520
2018-09-07T05:10:34.128Z,528
2018-09-07T05:11:34.038Z,528
2018-09-07T05:12:34.313Z,536
2018-09-07T05:13:34.297Z,544
2018-09-07T05:14:34.058Z,564
2018-09-07T05:15:34.082Z,604
2018-09-07T05:16:34.056Z,652
2018-09-07T05:17:34.053Z,696
2018-09-07T05:18:33.535Z,736
2018-09-07T05:19:34.300Z,780
2018-09-07T05:20:34.069Z,824
2018-09-07T05:21:34.050Z,856
2018-09-07T05:22:34.300Z,872
2018-09-07T05:23:33.792Z,880
2018-09-07T05:24:33.529Z,884
2018-09-07T05:25:33.794Z,864
2018-09-07T05:26:33.786Z,828
2018-09-07T05:27:33.803Z,788
2018-09-07T05:28:34.045Z,740
2018-09-07T05:29:33.795Z,688
2018-09-07T05:30:33.788Z,660
2018-09-07T05:31:33.951Z,668
2018-09-07T05:32:34.294Z,724
2018-09-07T05:33:34.052Z,788
2018-09-07T05:34:34.049Z,876
2018-09-07T05:35:34.125Z,972
2018-09-07T05:36:34.301Z,1068
2018-09-07T05:37:34.306Z,1144
2018-09-07T05:38:34.042Z,1204
2018-09-07T05:39:34.346Z,1252
2018-09-07T05:40:34.085Z,1272
2018-09-07T05:41:34.311Z,1236
2018-09-07T05:42:34.057Z,1152
2018-09-07T05:43:34.320Z,1072
2018-09-07T05:44:34.331Z,1040
2018-09-07T05:45:34.135Z,1088
2018-09-07T05:46:33.800Z,1156
2018-09-07T05:47:34.324Z,1188
2018-09-07T05:48:34.061Z,1204
2018-09-07T05:49:34.093Z,1216
2018-09-07T05:50:34.151Z,1224
2018-09-07T05:51:34.073Z,1228
2018-09-07T05:52:33.815Z,1496
2018-09-07T05:53:34.101Z,1492
2018-09-07T05:54:34.061Z,1492
2018-09-07T05:55:33.814Z,1516
2018-09-07T05:56:34.329Z,1556
2018-09-07T05:57:34.080Z,1580
2018-09-07T05:58:34.067Z,1616
2018-09-07T05:59:34.466Z,1620
2018-09-07T06:00:33.856Z,1636
2018-09-07T06:01:34.065Z,1652
2018-09-07T06:02:34.319Z,1688
2018-09-07T06:03:34.075Z,1732
2018-09-07T06:04:34.325Z,1748
2018-09-07T06:05:34.110Z,1748
2018-09-07T06:06:34.079Z,1760
2018-09-07T06:07:33.815Z,1800
2018-09-07T06:08:34.075Z,1840
2018-09-07T06:09:34.096Z,1868
2018-09-07T06:10:34.116Z,1892
2018-09-07T06:11:34.078Z,1916
2018-09-07T06:12:33.825Z,1928
2018-09-07T06:13:34.088Z,1948
2018-09-07T06:14:34.335Z,1972
2018-09-07T06:15:33.886Z,1944
2018-09-07T06:16:34.361Z,1896
2018-09-07T06:17:34.080Z,1852
2018-09-07T06:18:34.335Z,1828
2018-09-07T06:19:34.090Z,1820
2018-09-07T06:20:34.337Z,1828
2018-09-07T06:21:34.081Z,1848
2018-09-07T06:22:34.480Z,1848
2018-09-07T06:23:34.117Z,1816
2018-09-07T06:24:34.092Z,1788
2018-09-07T06:25:34.417Z,1752
2018-09-07T06:26:34.350Z,1716
2018-09-07T06:27:33.827Z,1676
2018-09-07T06:28:34.101Z,1644
2018-09-07T06:29:34.093Z,1604
2018-09-07T06:30:33.928Z,1564
2018-09-07T06:31:34.364Z,1548
2018-09-07T06:32:34.207Z,1540
2018-09-07T06:33:34.316Z,1540
2018-09-07T06:34:33.835Z,1552
2018-09-07T06:35:34.449Z,1572
2018-09-07T06:36:34.357Z,1616
2018-09-07T06:37:34.357Z,1676
2018-09-07T06:38:34.745Z,1728
2018-09-07T06:39:34.827Z,1760
2018-09-07T06:40:33.931Z,1756
2018-09-07T06:41:33.865Z,1712
2018-09-07T06:42:34.135Z,1628
2018-09-07T06:43:34.369Z,1548
2018-09-07T06:44:33.857Z,1480
2018-09-07T06:45:34.170Z,1460
2018-09-07T06:46:34.145Z,1524
2018-09-07T06:47:34.370Z,1608
2018-09-07T06:48:34.114Z,1720
2018-09-07T06:49:34.109Z,1884
2018-09-07T06:50:34.179Z,2040
2018-09-07T06:51:34.110Z,2156
2018-09-07T06:52:34.376Z,2132
2018-09-07T06:53:33.867Z,2164
2018-09-07T06:54:34.114Z,2420
2018-09-07T06:55:34.215Z,2576
2018-09-07T06:56:33.861Z,2576
2018-09-07T06:57:34.380Z,2500
2018-09-07T06:58:33.863Z,2428
2018-09-07T06:59:34.385Z,2448
2018-09-07T07:00:33.635Z,2456
2018-09-07T07:01:33.892Z,2400
2018-09-07T07:02:34.440Z,2372
2018-09-07T07:03:34.130Z,2384
2018-09-07T07:04:34.140Z,2444
2018-09-07T07:05:33.948Z,2484
2018-09-07T07:06:33.882Z,2476
2018-09-07T07:07:34.398Z,2428
2018-09-07T07:08:35.396Z,2360
2018-09-07T07:09:34.146Z,2304
2018-09-07T07:10:33.898Z,2256
2018-09-07T07:11:34.150Z,2224
2018-09-07T07:12:33.891Z,2216
2018-09-07T07:13:34.137Z,2232
2018-09-07T07:14:34.573Z,2236
2018-09-07T07:15:34.197Z,2232
2018-09-07T07:16:34.399Z,2216
2018-09-07T07:17:33.642Z,2224
2018-09-07T07:18:33.899Z,2232
2018-09-07T07:19:33.904Z,2232
2018-09-07T07:20:33.987Z,2240
2018-09-07T07:21:34.164Z,2236
2018-09-07T07:22:33.893Z,2236
2018-09-07T07:23:33.901Z,2216
2018-09-07T07:24:34.158Z,2192
2018-09-07T07:25:34.162Z,2168
2018-09-07T07:26:33.641Z,2152
2018-09-07T07:27:34.426Z,2148
2018-09-07T07:28:34.422Z,2164
2018-09-07T07:29:34.169Z,2208
2018-09-07T07:30:34.163Z,2280
2018-09-07T07:31:33.908Z,2368
2018-09-07T07:32:35.017Z,2452
2018-09-07T07:33:34.165Z,2508
2018-09-07T07:34:33.910Z,2552
2018-09-07T07:35:34.485Z,2644
2018-09-07T07:36:34.445Z,2828
2018-09-07T07:37:33.914Z,2972
2018-09-07T07:38:34.430Z,3068
2018-09-07T07:39:34.178Z,3240
2018-09-07T07:40:34.229Z,3624
2018-09-07T07:41:34.523Z,3984
2018-09-07T07:42:33.669Z,4296
2018-09-07T07:43:34.169Z,4428
2018-09-07T07:44:33.927Z,4372
2018-09-07T07:45:34.008Z,4220
2018-09-07T07:46:34.193Z,4204
2018-09-07T07:47:34.454Z,4384
2018-09-07T07:48:34.181Z,4772
2018-09-07T07:49:33.919Z,5256
2018-09-07T07:50:34.198Z,5532
2018-09-07T07:51:34.190Z,5568
2018-09-07T07:52:34.484Z,5620
2018-09-07T07:53:34.456Z,5864
2018-09-07T07:54:33.932Z,6020
2018-09-07T07:55:33.739Z,5908
2018-09-07T07:56:33.922Z,5768
2018-09-07T07:57:34.182Z,5680
2018-09-07T07:58:34.198Z,5684
2018-09-07T07:59:34.209Z,5848
2018-09-07T08:00:33.974Z,6220
2018-09-07T08:01:34.463Z,6648
2018-09-07T08:02:34.458Z,6996
2018-09-07T08:03:34.454Z,7212
2018-09-07T08:04:33.971Z,7248
2018-09-07T08:05:34.242Z,7324
2018-09-07T08:06:34.214Z,7384
2018-09-07T08:07:33.976Z,7368
2018-09-07T08:08:34.218Z,7352
2018-09-07T08:09:33.955Z,7424
2018-09-07T08:10:34.480Z,7468
2018-09-07T08:11:34.219Z,7412
2018-09-07T08:12:34.219Z,7356
2018-09-07T08:13:33.969Z,7208
2018-09-07T08:14:33.962Z,7004
2018-09-07T08:15:34.308Z,6884
2018-09-07T08:16:34.497Z,6880
2018-09-07T08:17:34.572Z,7332
2018-09-07T08:18:34.537Z,8184
2018-09-07T08:19:34.496Z,8604
2018-09-07T08:20:34.453Z,8620
2018-09-07T08:21:34.244Z,8568
2018-09-07T08:22:34.239Z,8660
2018-09-07T08:23:34.501Z,8648
2018-09-07T08:24:34.255Z,8500
2018-09-07T08:25:34.297Z,8244
2018-09-07T08:26:34.826Z,7940
2018-09-07T08:27:34.520Z,7796
2018-09-07T08:28:34.007Z,7656
2018-09-07T08:29:34.534Z,7580
2018-09-07T08:30:34.618Z,7388
2018-09-07T08:31:34.532Z,7248
2018-09-07T08:32:34.482Z,7288
2018-09-07T08:33:34.053Z,7524
2018-09-07T08:34:34.569Z,7768
2018-09-07T08:35:34.078Z,7728
2018-09-07T08:36:34.574Z,7424
2018-09-07T08:37:34.029Z,7388
2018-09-07T08:38:34.033Z,6896
2018-09-07T08:39:34.032Z,6888
2018-09-07T08:40:34.841Z,7120
2018-09-07T08:41:34.561Z,7660
2018-09-07T08:42:34.317Z,7988
2018-09-07T08:43:33.784Z,7996
2018-09-07T08:44:34.573Z,8152
2018-09-07T08:45:34.084Z,8184
2018-09-07T08:46:34.615Z,7804
2018-09-07T08:47:34.320Z,6900
2018-09-07T08:48:34.130Z,6692
2018-09-07T08:49:34.325Z,6356
2018-09-07T08:50:34.206Z,5936
2018-09-07T08:51:34.602Z,6208
2018-09-07T08:52:34.607Z,7256
2018-09-07T08:53:34.339Z,8372
2018-09-07T08:54:34.805Z,10812
2018-09-07T08:55:34.676Z,11776
2018-09-07T08:56:34.096Z,10556
2018-09-07T08:57:34.616Z,10116
2018-09-07T08:58:34.608Z,9488
2018-09-07T08:59:34.103Z,8992
2018-09-07T09:00:34.355Z,8780
2018-09-07T09:01:34.631Z,8840
2018-09-07T09:02:34.366Z,8924
2018-09-07T09:03:34.370Z,8780
2018-09-07T09:04:34.121Z,8484
2018-09-07T09:05:33.885Z,8368
2018-09-07T09:06:34.385Z,8428
2018-09-07T09:07:34.397Z,8580
2018-09-07T09:08:34.378Z,8516
2018-09-07T09:09:34.145Z,8408
2018-09-07T09:10:34.427Z,8444
2018-09-07T09:11:34.157Z,8420
2018-09-07T09:12:34.384Z,8216
2018-09-07T09:13:34.391Z,7848
2018-09-07T09:14:34.660Z,7296
2018-09-07T09:15:34.400Z,6776
2018-09-07T09:16:34.408Z,6568
2018-09-07T09:17:34.156Z,6628
2018-09-07T09:18:34.465Z,6652
2018-09-07T09:19:34.407Z,6500
2018-09-07T09:20:34.787Z,6320
2018-09-07T09:21:34.687Z,6104
2018-09-07T09:22:34.435Z,6096
2018-09-07T09:23:35.146Z,6424
2018-09-07T09:24:34.818Z,6636
2018-09-07T09:25:34.452Z,6652
2018-09-07T09:26:33.921Z,6452
2018-09-07T09:27:34.500Z,6296
2018-09-07T09:28:34.717Z,6400
2018-09-07T09:29:34.468Z,6824
2018-09-07T09:30:33.977Z,7228
2018-09-07T09:31:34.461Z,7224
2018-09-07T09:32:34.750Z,7160
2018-09-07T09:33:34.224Z,7232
2018-09-07T09:34:34.757Z,7416
2018-09-07T09:35:34.817Z,7592
2018-09-07T09:36:34.470Z,7728
2018-09-07T09:37:34.715Z,7780
2018-09-07T09:38:34.493Z,7824
2018-09-07T09:39:34.472Z,7896
2018-09-07T09:40:34.789Z,7820
2018-09-07T09:41:34.488Z,7720
2018-09-07T09:42:34.480Z,7772
2018-09-07T09:43:34.782Z,7876
2018-09-07T09:44:34.231Z,7872
2018-09-07T09:45:34.538Z,7928
2018-09-07T09:46:34.509Z,8100
2018-09-07T09:47:34.531Z,8300
2018-09-07T09:48:34.786Z,8684
2018-09-07T09:49:34.250Z,9040
2018-09-07T09:50:34.512Z,9432
2018-09-07T09:51:34.268Z,9872
2018-09-07T09:52:34.561Z,10260
2018-09-07T09:53:34.810Z,10704
2018-09-07T09:54:34.782Z,10536
2018-09-07T09:55:34.816Z,10464
2018-09-07T09:56:34.582Z,10528
2018-09-07T09:57:34.557Z,11108
2018-09-07T09:58:35.007Z,11172
2018-09-07T09:59:34.801Z,13040
2018-09-07T10:00:34.549Z,10660
2018-09-07T10:01:34.811Z,10540
2018-09-07T10:02:35.208Z,10672
2018-09-07T10:03:34.821Z,10292
2018-09-07T10:04:34.889Z,10628
2018-09-07T10:05:34.646Z,11668
2018-09-07T10:06:34.308Z,11088
2018-09-07T10:07:34.825Z,11308
2018-09-07T10:08:36.317Z,11136
2018-09-07T10:09:34.341Z,11024
2018-09-07T10:10:34.921Z,10700
2018-09-07T10:11:34.881Z,10012
2018-09-07T10:12:34.980Z,9780
2018-09-07T10:13:34.588Z,9772
2018-09-07T10:14:34.856Z,9944
2018-09-07T10:15:34.900Z,9908
2018-09-07T10:16:34.099Z,9996
2018-09-07T10:17:34.870Z,10256
2018-09-07T10:18:34.389Z,10700
2018-09-07T10:19:34.573Z,11156
2018-09-07T10:20:34.494Z,10268
2018-09-07T10:21:34.619Z,10180
2018-09-07T10:22:34.362Z,9996
2018-09-07T10:23:34.366Z,9844
2018-09-07T10:24:34.621Z,9892
2018-09-07T10:25:35.171Z,10104
2018-09-07T10:26:34.373Z,10208
2018-09-07T10:27:34.635Z,10372
2018-09-07T10:28:34.902Z,9916
2018-09-07T10:29:34.368Z,10124
2018-09-07T10:30:34.960Z,9972
2018-09-07T10:31:34.942Z,10288
2018-09-07T10:32:34.638Z,11364
2018-09-07T10:33:34.897Z,11244
2018-09-07T10:34:34.652Z,12632
2018-09-07T10:35:34.408Z,11368
2018-09-07T10:36:34.665Z,11436
2018-09-07T10:37:35.196Z,12100
2018-09-07T10:38:34.940Z,12576
2018-09-07T10:39:34.675Z,13324
2018-09-07T10:40:34.939Z,12888
2018-09-07T10:41:34.949Z,12604
2018-09-07T10:42:34.685Z,11888
2018-09-07T10:43:34.711Z,11268
2018-09-07T10:44:34.944Z,10504
2018-09-07T10:45:34.449Z,10836
2018-09-07T10:46:34.696Z,9328
2018-09-07T10:47:34.953Z,9980
2018-09-07T10:48:34.454Z,10112
2018-09-07T10:49:34.731Z,9472
2018-09-07T10:50:34.795Z,10064
2018-09-07T10:51:34.736Z,10076
2018-09-07T10:52:34.974Z,9408
2018-09-07T10:53:34.738Z,9280
2018-09-07T10:54:34.733Z,8360
2018-09-07T10:55:34.788Z,9484
2018-09-07T10:56:34.583Z,8728
2018-09-07T10:57:34.967Z,9116
2018-09-07T10:58:34.501Z,9880
2018-09-07T10:59:35.559Z,10400
2018-09-07T11:00:34.616Z,10628
2018-09-07T11:01:34.507Z,9252
2018-09-07T11:02:34.754Z,8480
2018-09-07T11:03:34.800Z,7276
2018-09-07T11:04:35.031Z,6300
2018-09-07T11:05:35.089Z,5992
2018-09-07T11:06:34.530Z,6020
2018-09-07T11:07:35.057Z,5952
2018-09-07T11:08:35.056Z,5960
2018-09-07T11:09:35.051Z,5948
2018-09-07T11:10:34.606Z,5872
2018-09-07T11:11:34.802Z,6092
2018-09-07T11:12:35.088Z,6644
2018-09-07T11:13:35.091Z,6572
2018-09-07T11:14:34.542Z,6584
2018-09-07T11:15:34.858Z,7088
2018-09-07T11:16:34.840Z,8988
2018-09-07T11:17:34.817Z,7916
2018-09-07T11:18:35.081Z,8428
2018-09-07T11:19:34.557Z,8240
2018-09-07T11:20:34.895Z,8388
2018-09-07T11:21:35.097Z,10128
2018-09-07T11:22:34.575Z,8556
2018-09-07T11:23:35.138Z,8040
2018-09-07T11:24:34.841Z,7964
2018-09-07T11:25:34.591Z,9676
2018-09-07T11:26:35.138Z,8080
2018-09-07T11:27:34.844Z,7720
2018-09-07T11:28:34.615Z,7864
2018-09-07T11:29:34.871Z,7536
2018-09-07T11:30:34.657Z,7448
2018-09-07T11:31:35.135Z,7816
2018-09-07T11:32:34.917Z,9616
2018-09-07T11:33:34.888Z,9328
2018-09-07T11:34:34.616Z,7392
2018-09-07T11:35:35.532Z,7636
2018-09-07T11:36:35.132Z,8120
2018-09-07T11:37:34.368Z,9480
2018-09-07T11:38:34.630Z,9612
2018-09-07T11:39:34.645Z,9796
2018-09-07T11:40:35.388Z,9760
2018-09-07T11:41:34.651Z,9608
2018-09-07T11:42:34.899Z,9284
2018-09-07T11:43:34.903Z,9828
2018-09-07T11:44:34.931Z,9988
2018-09-07T11:45:34.398Z,9888
2018-09-07T11:46:34.660Z,8348
2018-09-07T11:47:34.925Z,8440
2018-09-07T11:48:36.236Z,9128
2018-09-07T11:49:35.337Z,8552
2018-09-07T11:50:35.197Z,8152
2018-09-07T11:51:34.413Z,7868
2018-09-07T11:52:34.916Z,7680
2018-09-07T11:53:34.946Z,7404
2018-09-07T11:54:35.259Z,7068
2018-09-07T11:55:35.047Z,6904
2018-09-07T11:56:34.430Z,6904
2018-09-07T11:57:34.953Z,6980
2018-09-07T11:58:34.798Z,7984
2018-09-07T11:59:34.453Z,7784
2018-09-07T12:00:34.722Z,7648
2018-09-07T12:01:34.953Z,7376
2018-09-07T12:02:34.972Z,7092
2018-09-07T12:03:34.974Z,6912
2018-09-07T12:04:35.669Z,6888
2018-09-07T12:05:35.261Z,6952
2018-09-07T12:06:34.710Z,7196
2018-09-07T12:07:34.967Z,7516
2018-09-07T12:08:34.732Z,7760
2018-09-07T12:09:34.714Z,7988
2018-09-07T12:10:35.108Z,8152
2018-09-07T12:11:34.739Z,8152
2018-09-07T12:12:34.903Z,8644
2018-09-07T12:13:35.793Z,8836
2018-09-07T12:14:35.249Z,8736
2018-09-07T12:15:34.823Z,7800
2018-09-07T12:16:35.087Z,7488
2018-09-07T12:17:34.762Z,7380
2018-09-07T12:18:35.255Z,6840
2018-09-07T12:19:35.043Z,6724
2018-09-07T12:20:35.025Z,6700
2018-09-07T12:21:35.023Z,6784
2018-09-07T12:22:35.301Z,7008
2018-09-07T12:23:35.256Z,7272
2018-09-07T12:24:34.522Z,7524
2018-09-07T12:25:35.065Z,7744
2018-09-07T12:26:35.042Z,8100
2018-09-07T12:27:35.297Z,7852
2018-09-07T12:28:34.797Z,7980
2018-09-07T12:29:35.304Z,7800
2018-09-07T12:30:34.885Z,7852
2018-09-07T12:31:35.321Z,8200
2018-09-07T12:32:35.106Z,8820
2018-09-07T12:33:35.106Z,9248
2018-09-07T12:34:35.144Z,9500
2018-09-07T12:35:35.382Z,9528
2018-09-07T12:36:35.091Z,9548
2018-09-07T12:37:34.819Z,9660
2018-09-07T12:38:35.096Z,9772
2018-09-07T12:39:35.116Z,9872
2018-09-07T12:40:35.234Z,9948
2018-09-07T12:41:35.077Z,10092
2018-09-07T12:42:35.080Z,10244
2018-09-07T12:43:35.430Z,10304
2018-09-07T12:44:35.093Z,10300
2018-09-07T12:45:35.101Z,10280
2018-09-07T12:46:35.360Z,10224
2018-09-07T12:47:35.101Z,10244
2018-09-07T12:48:35.819Z,10240
2018-09-07T12:49:35.385Z,10124
2018-09-07T12:50:34.916Z,9900
2018-09-07T12:51:35.375Z,9616
2018-09-07T12:52:35.114Z,9328
2018-09-07T12:53:35.118Z,8996
2018-09-07T12:54:35.381Z,8620
2018-09-07T12:55:35.393Z,8244
2018-09-07T12:56:35.139Z,7936
2018-09-07T12:57:34.644Z,7732
2018-09-07T12:58:35.384Z,7644
2018-09-07T12:59:35.418Z,7672
2018-09-07T13:00:35.392Z,7748
2018-09-07T13:01:35.419Z,7780
2018-09-07T13:02:35.797Z,7720
2018-09-07T13:03:34.916Z,7608
2018-09-07T13:04:35.154Z,7496
2018-09-07T13:05:35.447Z,7384
2018-09-07T13:06:35.418Z,7272
2018-09-07T13:07:35.421Z,7172
2018-09-07T13:08:34.922Z,7092
2018-09-07T13:09:35.439Z,7060
2018-09-07T13:10:35.199Z,7132
2018-09-07T13:11:35.441Z,7292
2018-09-07T13:12:35.197Z,7460
2018-09-07T13:13:35.451Z,7580
2018-09-07T13:14:35.187Z,7640
2018-09-07T13:15:35.274Z,7576
2018-09-07T13:16:35.473Z,7428
2018-09-07T13:17:35.453Z,7300
2018-09-07T13:18:35.210Z,7208
2018-09-07T13:19:35.202Z,7120
2018-09-07T13:20:35.512Z,7004
2018-09-07T13:21:35.736Z,6908
2018-09-07T13:22:35.234Z,6916
2018-09-07T13:23:35.003Z,6968
2018-09-07T13:24:35.465Z,7036
2018-09-07T13:25:34.767Z,7120
2018-09-07T13:26:35.234Z,7228
2018-09-07T13:27:35.479Z,7376
2018-09-07T13:28:35.558Z,7688
2018-09-07T13:29:35.473Z,8136
2018-09-07T13:30:35.228Z,8716
2018-09-07T13:31:34.976Z,9332
2018-09-07T13:32:35.499Z,10132
2018-09-07T13:33:35.498Z,10348
2018-09-07T13:34:34.993Z,9512
2018-09-07T13:35:35.351Z,9168
2018-09-07T13:36:35.507Z,9040
2018-09-07T13:37:35.512Z,9076
2018-09-07T13:38:35.520Z,9124
2018-09-07T13:39:35.268Z,9048
2018-09-07T13:40:35.560Z,8988
2018-09-07T13:41:35.275Z,9836
2018-09-07T13:42:35.006Z,9828
2018-09-07T13:43:35.285Z,9544
2018-09-07T13:44:35.028Z,9456
2018-09-07T13:45:35.384Z,8852
2018-09-07T13:46:35.319Z,8716